createdAt,value
2022-08-16T00:02:26.358Z,99896.63
2022-08-16T00:04:59.790Z,99895.84
2022-08-16T00:07:29.510Z,99887.97
2022-08-16T00:09:59.387Z,99894.16
2022-08-16T00:12:29.364Z,99895.84
2022-08-16T00:15:13.330Z,99900.31
2022-08-16T00:17:56.979Z,99896.69
2022-08-16T00:20:27.977Z,99895.84
2022-08-16T00:22:58.833Z,99901.16
2022-08-16T00:25:34.370Z,99895.00
2022-08-16T00:28:17.292Z,99901.16
2022-08-16T00:30:45.732Z,99899.34
2022-08-16T00:33:15.516Z,99903.81
2022-08-16T00:35:46.075Z,99910.88
2022-08-16T00:38:40.985Z,99910.97
2022-08-16T00:41:07.274Z,99904.91
2022-08-16T00:43:40.689Z,99906.72
2022-08-16T00:46:22.378Z,99894.63
2022-08-16T00:49:02.683Z,99898.44
2022-08-16T00:51:32.498Z,99902.06
2022-08-16T00:54:02.869Z,99902.31
2022-08-16T00:56:58.538Z,99902.53
2022-08-16T00:59:27.918Z,99903.59
2022-08-16T01:01:57.065Z,99907.22
2022-08-16T01:04:30.922Z,99908.28
2022-08-16T01:07:06.683Z,99908.53
2022-08-16T01:09:42.903Z,99900.88
2022-08-16T01:12:26.268Z,99901.94
2022-08-16T01:15:00.947Z,99905.78
2022-08-16T01:17:36.851Z,99907.69
2022-08-16T01:20:24.519Z,99908.91
2022-08-16T01:23:09.053Z,99903.91
2022-08-16T01:25:44.086Z,99908.59
2022-08-16T01:28:19.639Z,99908.81
2022-08-16T01:30:54.261Z,99915.31
2022-08-16T01:33:24.626Z,99923.50
2022-08-16T01:36:12.173Z,99915.75
2022-08-16T01:38:49.075Z,99927.31
2022-08-16T01:41:29.701Z,99924.78
2022-08-16T01:44:01.070Z,99922.22
2022-08-16T01:46:39.131Z,99924.16
2022-08-16T01:49:43.468Z,99919.06
2022-08-16T01:52:29.407Z,99919.28
2022-08-16T01:55:26.031Z,99911.41
2022-08-16T01:58:06.195Z,99906.94
2022-08-16T02:00:40.314Z,99906.94
2022-08-16T02:03:12.556Z,99908.88
2022-08-16T02:05:51.717Z,99913.44
2022-08-16T02:08:33.385Z,99916.41
2022-08-16T02:11:06.933Z,99921.06
2022-08-16T02:13:41.637Z,99916.81
2022-08-16T02:16:18.749Z,99916.94
2022-08-16T02:18:48.781Z,99909.19
2022-08-16T02:21:31.337Z,99894.16
2022-08-16T02:24:00.969Z,99898.66
2022-08-16T02:26:29.617Z,99901.44
2022-08-16T02:29:04.525Z,99899.69
2022-08-16T02:32:03.068Z,99902.25
2022-08-16T02:34:32.905Z,99896.09
2022-08-16T02:37:10.977Z,99901.50
2022-08-16T02:39:41.428Z,99909.69
2022-08-16T02:42:10.289Z,99904.50
2022-08-16T02:44:42.489Z,99908.22
2022-08-16T02:47:11.662Z,99901.41
2022-08-16T02:50:52.874Z,99907.81
2022-08-16T02:52:43.909Z,99910.69
2022-08-16T02:55:15.658Z,99908.31
2022-08-16T02:57:54.093Z,99909.59
2022-08-16T03:00:34.553Z,99909.91
2022-08-16T03:03:10.615Z,99900.56
2022-08-16T03:05:39.634Z,99899.94
2022-08-16T03:08:50.381Z,99911.59
2022-08-16T03:11:00.353Z,99900.34
2022-08-16T03:13:29.237Z,99909.38
2022-08-16T03:16:00.077Z,99898.84
2022-08-16T03:18:34.464Z,99905.97
2022-08-16T03:21:10.085Z,99905.19
2022-08-16T03:23:38.805Z,99900.03
2022-08-16T03:26:09.626Z,99895.56
2022-08-16T03:28:39.435Z,99891.22
2022-08-16T03:31:10.404Z,99892.91
2022-08-16T03:33:43.842Z,99893.75
2022-08-16T03:36:29.889Z,99898.97
2022-08-16T03:39:03.583Z,99894.59
2022-08-16T03:41:50.255Z,99906.94
2022-08-16T03:44:44.681Z,99900.84
2022-08-16T03:47:13.468Z,99902.03
2022-08-16T03:49:51.648Z,99890.75
2022-08-16T03:52:23.575Z,99894.56
2022-08-16T03:54:58.182Z,99900.28
2022-08-16T03:57:31.632Z,99908.91
2022-08-16T04:00:20.703Z,99908.47
2022-08-16T04:03:08.804Z,99908.13
2022-08-16T04:05:44.612Z,99905.88
2022-08-16T04:08:23.813Z,99911.50
2022-08-16T04:10:57.902Z,99910.09
2022-08-16T04:14:01.562Z,99908.41
2022-08-16T04:16:26.660Z,99914.56
2022-08-16T04:19:02.025Z,99910.94
2022-08-16T04:21:32.299Z,99914.56
2022-08-16T04:24:02.026Z,99913.72
2022-08-16T04:26:32.669Z,99909.25
2022-08-16T04:29:16.266Z,99913.41
2022-08-16T04:31:56.056Z,99917.72
2022-08-16T04:34:33.474Z,99919.47
2022-08-16T04:37:03.325Z,99923.59
2022-08-16T04:39:47.065Z,99916.09
2022-08-16T04:42:26.028Z,99919.09
2022-08-16T04:44:57.612Z,99922.97
2022-08-16T04:47:35.502Z,99931.28
2022-08-16T04:50:14.502Z,99930.66
2022-08-16T04:52:59.927Z,99935.56
2022-08-16T04:55:38.255Z,99931.66
2022-08-16T04:58:38.490Z,99929.63
2022-08-16T05:01:00.855Z,99931.31
2022-08-16T05:03:31.802Z,99938.34
2022-08-16T05:06:06.993Z,99937.50
2022-08-16T05:08:36.005Z,99938.34
2022-08-16T05:11:15.812Z,99940.91
2022-08-16T05:13:49.312Z,99953.88
2022-08-16T05:16:27.955Z,99945.38
2022-08-16T05:19:17.474Z,99948.38
2022-08-16T05:22:07.291Z,99950.50
2022-08-16T05:24:47.447Z,99944.78
2022-08-16T05:27:15.992Z,99951.56
2022-08-16T05:30:00.966Z,99949.44
2022-08-16T05:32:36.596Z,99955.28
2022-08-16T05:35:16.558Z,99957.50
2022-08-16T05:38:32.305Z,99955.31
2022-08-16T05:41:01.965Z,99960.31
2022-08-16T05:43:43.196Z,99960.72
2022-08-16T05:46:29.700Z,99959.22
2022-08-16T05:49:09.506Z,99964.00
2022-08-16T05:51:42.500Z,99968.97
2022-08-16T05:54:24.958Z,99977.50
2022-08-16T05:56:57.863Z,99973.69
2022-08-16T05:59:29.314Z,99978.56
2022-08-16T06:01:59.716Z,99985.13
2022-08-16T06:04:35.639Z,99982.78
2022-08-16T06:07:24.356Z,99976.56
2022-08-16T06:10:05.180Z,99980.03
2022-08-16T06:12:36.895Z,99982.44
2022-08-16T06:15:14.889Z,99978.13
2022-08-16T06:17:46.349Z,99973.19
2022-08-16T06:20:34.826Z,99979.50
2022-08-16T06:23:16.927Z,99979.59
2022-08-16T06:26:03.775Z,99980.47
2022-08-16T06:28:39.111Z,99974.91
2022-08-16T06:31:15.368Z,99987.03
2022-08-16T06:33:47.927Z,99979.56
2022-08-16T06:36:21.771Z,99986.09
2022-08-16T06:39:00.304Z,99983.72
2022-08-16T06:41:43.962Z,99979.59
2022-08-16T06:44:24.488Z,99975.31
2022-08-16T06:47:02.853Z,99976.50
2022-08-16T06:49:31.983Z,99985.75
2022-08-16T06:52:02.933Z,99989.66
2022-08-16T06:54:36.365Z,99986.28
2022-08-16T06:57:16.548Z,99992.72
2022-08-16T06:59:52.790Z,99994.78
2022-08-16T07:02:32.895Z,99992.38
2022-08-16T07:05:04.106Z,100001.47
2022-08-16T07:07:50.686Z,99997.09
2022-08-16T07:10:25.859Z,99996.09
2022-08-16T07:13:04.431Z,99995.78
2022-08-16T07:15:50.488Z,99988.19
2022-08-16T07:18:24.859Z,100001.66
2022-08-16T07:20:57.794Z,99984.19
2022-08-16T07:23:37.000Z,99994.69
2022-08-16T07:26:24.878Z,99992.94
2022-08-16T07:28:56.898Z,99992.16
2022-08-16T07:31:25.415Z,99980.31
2022-08-16T07:34:10.023Z,99990.03
2022-08-16T07:36:39.009Z,99995.84
2022-08-16T07:39:08.747Z,99992.50
2022-08-16T07:41:40.157Z,99981.81
2022-08-16T07:44:15.425Z,99984.53
2022-08-16T07:46:45.069Z,99973.84
2022-08-16T07:49:22.674Z,99981.84
2022-08-16T07:51:55.997Z,99977.19
2022-08-16T07:54:37.955Z,99972.56
2022-08-16T07:57:12.150Z,99976.97
2022-08-16T07:59:45.998Z,99977.69
2022-08-16T08:02:20.618Z,99984.66
2022-08-16T08:04:55.469Z,99982.50
2022-08-16T08:07:28.106Z,99977.81
2022-08-16T08:09:58.440Z,99977.25
2022-08-16T08:12:32.495Z,99976.75
2022-08-16T08:15:11.341Z,99982.00
2022-08-16T08:17:44.086Z,99978.59
2022-08-16T08:20:27.976Z,99980.66
2022-08-16T08:23:02.737Z,99980.66
2022-08-16T08:25:54.102Z,99985.31
2022-08-16T08:28:24.130Z,99983.94
2022-08-16T08:31:02.436Z,99989.59
2022-08-16T08:33:34.941Z,99989.75
2022-08-16T08:36:10.196Z,99996.97
2022-08-16T08:38:44.291Z,99990.19
2022-08-16T08:41:18.284Z,99990.59
2022-08-16T08:43:50.377Z,99985.19
2022-08-16T08:46:23.621Z,99999.78
2022-08-16T08:49:00.125Z,100000.94
2022-08-16T08:51:36.810Z,100015.56
2022-08-16T08:54:09.753Z,100002.44
2022-08-16T08:56:45.271Z,100009.94
2022-08-16T08:59:33.694Z,100006.69
2022-08-16T09:02:08.887Z,100002.31
2022-08-16T09:04:47.875Z,100011.34
2022-08-16T09:07:22.096Z,100005.44
2022-08-16T09:10:06.369Z,100007.03
2022-08-16T09:12:38.100Z,100002.22
2022-08-16T09:15:13.757Z,100010.94
2022-08-16T09:17:52.151Z,100017.19
2022-08-16T09:20:30.329Z,100017.22
2022-08-16T09:23:02.340Z,100018.63
2022-08-16T09:25:36.044Z,100019.91
2022-08-16T09:28:09.371Z,100011.03
2022-08-16T09:30:45.222Z,100007.38
2022-08-16T09:33:19.903Z,100012.19
2022-08-16T09:35:53.519Z,100002.59
2022-08-16T09:38:32.049Z,100001.22
2022-08-16T09:41:02.665Z,100003.59
2022-08-16T09:43:59.435Z,100003.69
2022-08-16T09:46:44.923Z,100001.72
2022-08-16T09:49:13.940Z,99998.09
2022-08-16T09:51:42.409Z,99994.81
2022-08-16T09:54:17.174Z,100002.84
2022-08-16T09:56:52.835Z,100000.41
2022-08-16T09:59:25.673Z,99991.44
2022-08-16T10:01:59.584Z,99993.53
2022-08-16T10:04:36.634Z,99996.00
2022-08-16T10:07:16.020Z,99990.72
2022-08-16T10:09:54.682Z,99993.09
2022-08-16T10:12:44.405Z,99995.22
2022-08-16T10:15:17.876Z,99989.41
2022-08-16T10:18:01.361Z,99990.72
2022-08-16T10:20:35.994Z,99989.50
2022-08-16T10:23:09.912Z,99988.69
2022-08-16T10:27:16.381Z,99984.03
2022-08-16T10:28:40.162Z,99980.66
2022-08-16T10:31:16.907Z,99967.66
2022-08-16T10:34:02.274Z,99988.88
2022-08-16T10:36:39.237Z,99983.25
2022-08-16T10:39:08.779Z,99981.56
2022-08-16T10:41:37.446Z,99981.94
2022-08-16T10:44:09.441Z,99980.28
2022-08-16T10:46:41.845Z,99989.03
2022-08-16T10:49:12.381Z,99988.88
2022-08-16T10:52:01.735Z,99979.38
2022-08-16T10:54:31.316Z,99980.63
2022-08-16T10:57:00.943Z,99978.31
2022-08-16T10:59:46.027Z,99980.69
2022-08-16T11:02:57.834Z,99980.53
2022-08-16T11:05:16.520Z,99971.03
2022-08-16T11:07:52.483Z,99974.81
2022-08-16T11:13:57.575Z,99981.50
2022-08-16T11:19:06.483Z,99981.84
2022-08-16T11:24:41.515Z,99976.53
2022-08-16T11:27:24.165Z,99987.63
2022-08-16T11:30:01.849Z,99978.81
2022-08-16T11:32:33.635Z,99987.13
2022-08-16T11:35:13.883Z,99987.78
2022-08-16T11:40:44.246Z,99982.78
2022-08-16T11:43:16.918Z,99981.69
2022-08-16T11:45:53.959Z,99977.09
2022-08-16T11:48:24.559Z,99986.03
2022-08-16T11:50:53.526Z,99984.38
2022-08-16T11:53:22.759Z,99982.72
2022-08-16T11:55:55.256Z,99981.31
2022-08-16T11:58:26.090Z,99976.31
2022-08-16T12:00:59.217Z,99979.91
2022-08-16T12:03:36.757Z,99974.84
2022-08-16T12:06:25.123Z,99979.94
2022-08-16T12:09:02.260Z,99979.53
2022-08-16T12:11:33.964Z,99973.88
2022-08-16T12:14:04.724Z,99977.06
2022-08-16T12:16:35.669Z,99973.56
2022-08-16T12:19:06.509Z,99977.75
2022-08-16T12:21:58.487Z,99968.63
2022-08-16T12:24:29.285Z,99963.66
2022-08-16T12:26:59.986Z,99963.06
2022-08-16T12:29:29.807Z,99966.47
2022-08-16T12:32:26.561Z,99965.28
2022-08-16T12:34:50.649Z,99967.53
2022-08-16T12:37:24.386Z,99972.72
2022-08-16T12:39:55.892Z,99958.88
2022-08-16T12:42:35.188Z,99957.50
2022-08-16T12:45:08.377Z,99966.63
2022-08-16T12:48:09.904Z,99958.69
2022-08-16T12:50:43.229Z,99960.09
2022-08-16T12:53:20.530Z,99956.19
2022-08-16T12:55:50.252Z,99944.34
2022-08-16T12:58:49.468Z,99948.03
2022-08-16T13:01:11.300Z,99948.31
2022-08-16T13:04:12.444Z,99946.88
2022-08-16T13:06:52.320Z,99945.66
2022-08-16T13:09:24.178Z,99944.44
2022-08-16T13:12:03.669Z,99943.72
2022-08-16T13:14:41.354Z,99940.19
2022-08-16T13:17:18.686Z,99942.91
2022-08-16T13:20:08.272Z,99933.91
2022-08-16T13:25:21.157Z,99929.34
2022-08-16T13:28:02.308Z,99932.38
2022-08-16T13:30:41.890Z,99939.16
2022-08-16T13:33:16.933Z,99929.63
2022-08-16T13:35:55.703Z,99939.22
2022-08-16T13:38:37.294Z,99941.66
2022-08-16T13:41:08.313Z,99941.09
2022-08-16T13:43:39.254Z,99936.34
2022-08-16T13:46:09.845Z,99922.78
2022-08-16T13:48:44.764Z,99922.44
2022-08-16T13:51:17.513Z,99914.19
2022-08-16T13:53:54.232Z,99910.53
2022-08-16T13:56:36.860Z,99909.19
2022-08-16T13:59:19.545Z,99916.53
2022-08-16T14:01:55.461Z,99908.13
2022-08-16T14:04:27.635Z,99912.31
2022-08-16T14:06:58.708Z,99913.47
2022-08-16T14:09:29.102Z,99906.63
2022-08-16T14:11:58.609Z,99905.09
2022-08-16T14:14:30.352Z,99906.97
2022-08-16T14:17:03.165Z,99906.00
2022-08-16T14:19:31.959Z,99906.84
2022-08-16T14:22:13.758Z,99903.19
2022-08-16T14:24:45.363Z,99900.44
2022-08-16T14:27:17.741Z,99894.53
2022-08-16T14:29:49.296Z,99898.03
2022-08-16T14:32:27.236Z,99906.53
2022-08-16T14:35:07.277Z,99895.22
2022-08-16T14:37:36.904Z,99895.31
2022-08-16T14:40:06.832Z,99890.03
2022-08-16T14:42:36.743Z,99892.31
2022-08-16T14:45:07.579Z,99886.50
2022-08-16T14:47:38.463Z,99896.44
2022-08-16T14:50:10.002Z,99900.03
2022-08-16T14:52:58.280Z,99894.72
2022-08-16T14:55:29.965Z,99884.38
2022-08-16T14:57:59.074Z,99890.81
2022-08-16T15:00:36.360Z,99881.19
2022-08-16T15:03:10.594Z,99876.81
2022-08-16T15:05:41.686Z,99890.97
2022-08-16T15:08:11.192Z,99887.22
2022-08-16T15:10:42.906Z,99877.06
2022-08-16T15:13:15.656Z,99881.06
2022-08-16T15:15:45.355Z,99886.16
2022-08-16T15:18:31.938Z,99874.25
2022-08-16T15:21:02.094Z,99882.19
2022-08-16T15:23:33.595Z,99885.81
2022-08-16T15:26:04.515Z,99880.91
2022-08-16T15:28:38.092Z,99880.31
2022-08-16T15:31:10.360Z,99888.91
2022-08-16T15:33:50.748Z,99887.19
2022-08-16T15:36:23.632Z,99879.50
2022-08-16T15:39:05.559Z,99881.53
2022-08-16T15:42:03.425Z,99881.22
2022-08-16T15:44:45.087Z,99885.91
2022-08-16T15:47:25.783Z,99883.22
2022-08-16T15:49:57.851Z,99882.56
2022-08-16T15:52:32.670Z,99879.75
2022-08-16T15:55:07.548Z,99886.38
2022-08-16T15:57:52.643Z,99889.84
2022-08-16T16:00:22.241Z,99887.03
2022-08-16T16:03:04.214Z,99885.00
2022-08-16T16:05:41.202Z,99881.06
2022-08-16T16:08:10.999Z,99881.91
2022-08-16T16:10:43.303Z,99881.72
2022-08-16T16:13:13.244Z,99880.31
2022-08-16T16:15:46.084Z,99879.50
2022-08-16T16:18:15.985Z,99881.03
2022-08-16T16:20:50.124Z,99878.56
2022-08-16T16:23:24.631Z,99878.47
2022-08-16T16:25:54.711Z,99880.13
2022-08-16T16:29:08.576Z,99873.66
2022-08-16T16:31:18.419Z,99871.53
2022-08-16T16:33:55.663Z,99873.81
2022-08-16T16:36:29.577Z,99876.16
2022-08-16T16:38:58.406Z,99869.84
2022-08-16T16:41:28.846Z,99864.28
2022-08-16T16:44:00.905Z,99864.06
2022-08-16T16:46:42.719Z,99857.06
2022-08-16T16:49:14.498Z,99866.03
2022-08-16T16:51:50.118Z,99853.88
2022-08-16T16:54:28.062Z,99860.84
2022-08-16T16:56:58.437Z,99858.88
2022-08-16T16:59:27.972Z,99860.28
2022-08-16T17:02:38.928Z,99867.25
2022-08-16T17:04:47.913Z,99865.88
2022-08-16T17:07:20.653Z,99860.94
2022-08-16T17:09:53.317Z,99863.81
2022-08-16T17:12:24.733Z,99865.00
2022-08-16T17:15:12.024Z,99860.28
2022-08-16T17:18:00.219Z,99857.06
2022-08-16T17:20:31.009Z,99855.50
2022-08-16T17:23:01.067Z,99863.25
2022-08-16T17:25:36.861Z,99858.75
2022-08-16T17:28:59.113Z,99856.31
2022-08-16T17:30:58.481Z,99856.72
2022-08-16T17:33:28.553Z,99865.69
2022-08-16T17:36:08.531Z,99861.13
2022-08-16T17:38:43.873Z,99866.72
2022-08-16T17:41:15.650Z,99865.06
2022-08-16T17:43:46.094Z,99865.53
2022-08-16T17:46:50.446Z,99869.47
2022-08-16T17:49:05.756Z,99855.44
2022-08-16T17:51:34.744Z,99864.16
2022-08-16T17:54:04.809Z,99865.56
2022-08-16T17:56:33.528Z,99866.97
2022-08-16T17:59:02.225Z,99870.63
2022-08-16T18:01:30.710Z,99872.81
2022-08-16T18:04:06.833Z,99867.78
2022-08-16T18:06:38.530Z,99867.34
2022-08-16T18:09:10.439Z,99870.66
2022-08-16T18:11:43.063Z,99869.16
2022-08-16T18:14:15.885Z,99871.34
2022-08-16T18:16:45.542Z,99875.22
2022-08-16T18:19:13.898Z,99876.88
2022-08-16T18:22:00.209Z,99867.59
2022-08-16T18:24:31.196Z,99869.34
2022-08-16T18:27:24.779Z,99872.91
2022-08-16T18:29:52.129Z,99883.84
2022-08-16T18:32:22.162Z,99880.72
2022-08-16T18:34:54.269Z,99885.56
2022-08-16T18:37:23.503Z,99883.28
2022-08-16T18:39:53.419Z,99875.59
2022-08-16T18:42:21.825Z,99878.66
2022-08-16T18:44:50.154Z,99870.16
2022-08-16T18:47:18.602Z,99880.34
2022-08-16T18:49:47.021Z,99881.41
2022-08-16T18:52:25.493Z,99877.91
2022-08-16T18:55:01.969Z,99880.00
2022-08-16T18:57:31.993Z,99887.25
2022-08-16T19:00:00.819Z,99882.72
2022-08-16T19:02:57.317Z,99890.00
2022-08-16T19:05:24.640Z,99889.38
2022-08-16T19:07:53.521Z,99886.69
2022-08-16T19:10:23.540Z,99892.97
2022-08-16T19:12:52.329Z,99894.84
2022-08-16T19:15:25.963Z,99890.25
2022-08-16T19:17:55.131Z,99896.34
2022-08-16T19:20:26.776Z,99900.75
2022-08-16T19:23:05.836Z,99896.19
2022-08-16T19:25:47.245Z,99899.91
2022-08-16T19:28:21.829Z,99899.75
2022-08-16T19:31:14.625Z,99904.44
2022-08-16T19:33:53.859Z,99902.75
2022-08-16T19:36:31.639Z,99908.97
2022-08-16T19:39:05.905Z,99904.41
2022-08-16T19:41:38.123Z,99916.03
2022-08-16T19:44:07.739Z,99920.56
2022-08-16T19:46:37.761Z,99923.06
2022-08-16T19:49:06.852Z,99924.91
2022-08-16T19:51:35.264Z,99928.56
2022-08-16T19:54:03.819Z,99924.97
2022-08-16T19:56:32.226Z,99919.38
2022-08-16T19:59:18.542Z,99923.03
2022-08-16T20:01:52.541Z,99931.38
2022-08-16T20:04:22.182Z,99926.88
2022-08-16T20:06:52.356Z,99934.53
2022-08-16T20:09:21.786Z,99929.06
2022-08-16T20:11:52.054Z,99935.09
2022-08-16T20:14:25.185Z,99951.84
2022-08-16T20:16:57.606Z,99948.06
2022-08-16T20:19:27.643Z,99958.47
2022-08-16T20:22:01.631Z,99953.53
2022-08-16T20:24:35.186Z,99952.31
2022-08-16T20:27:09.457Z,99960.03
2022-08-16T20:29:44.594Z,99956.09
2022-08-16T20:32:16.698Z,99962.94
2022-08-16T20:34:47.817Z,99968.09
2022-08-16T20:37:16.661Z,99964.13
2022-08-16T20:39:46.508Z,99963.03
2022-08-16T20:42:18.975Z,99971.69
2022-08-16T20:44:49.876Z,99967.94
2022-08-16T20:47:18.349Z,99963.19
2022-08-16T20:49:46.735Z,99972.50
2022-08-16T20:52:17.578Z,99966.75
2022-08-16T20:54:47.305Z,99965.53
2022-08-16T20:57:17.401Z,99970.66
2022-08-16T20:59:50.004Z,99967.56
2022-08-16T21:02:28.134Z,99967.31
2022-08-16T21:04:56.619Z,99963.09
2022-08-16T21:07:25.355Z,99969.69
2022-08-16T21:09:54.229Z,99978.91
2022-08-16T21:12:23.464Z,99974.69
2022-08-16T21:14:55.742Z,99983.03
2022-08-16T21:17:25.466Z,99976.41
2022-08-16T21:19:54.356Z,99977.81
2022-08-16T21:22:24.283Z,99975.44
2022-08-16T21:24:53.966Z,99974.91
2022-08-16T21:27:24.314Z,99971.66
2022-08-16T21:29:54.711Z,99977.31
2022-08-16T21:32:35.668Z,99977.88
2022-08-16T21:35:12.150Z,99981.13
2022-08-16T21:37:41.511Z,99977.06
2022-08-16T21:40:12.131Z,99974.97
2022-08-16T21:42:42.958Z,99976.25
2022-08-16T21:45:15.100Z,99975.81
2022-08-16T21:47:45.149Z,99973.69
2022-08-16T21:50:15.238Z,99986.66
2022-08-16T21:52:44.073Z,99990.75
2022-08-16T21:55:12.566Z,99981.44
2022-08-16T21:57:40.951Z,99979.22
2022-08-16T22:00:14.627Z,99980.63
2022-08-16T22:02:49.147Z,99985.41
2022-08-16T22:05:19.392Z,99977.94
2022-08-16T22:07:47.720Z,99978.50
2022-08-16T22:11:06.477Z,99970.03
2022-08-16T22:13:05.628Z,99974.97
2022-08-16T22:15:34.215Z,99975.41
2022-08-16T22:18:04.077Z,99982.00
2022-08-16T22:20:32.746Z,99977.91
2022-08-16T22:23:12.069Z,99985.47
2022-08-16T22:25:44.174Z,99982.38
2022-08-16T22:28:13.009Z,99989.41
2022-08-16T22:30:42.067Z,99989.09
2022-08-16T22:33:14.974Z,99986.28
2022-08-16T22:35:46.862Z,99979.47
2022-08-16T22:38:55.278Z,99980.03
2022-08-16T22:41:05.989Z,99987.91
2022-08-16T22:43:34.701Z,99983.78
2022-08-16T22:46:03.106Z,99984.22
2022-08-16T22:48:39.443Z,99984.59
2022-08-16T22:51:11.045Z,99986.81
2022-08-16T22:53:39.431Z,99988.09
2022-08-16T22:56:08.294Z,99988.34
2022-08-16T22:58:37.362Z,99989.56
2022-08-16T23:01:07.371Z,99988.84
2022-08-16T23:03:38.276Z,99994.47
2022-08-16T23:06:08.052Z,99991.22
2022-08-16T23:08:40.933Z,99995.00
2022-08-16T23:11:12.079Z,99996.94
2022-08-16T23:13:50.718Z,99996.25
2022-08-16T23:16:33.051Z,99995.53
2022-08-16T23:19:06.155Z,99990.56
2022-08-16T23:21:37.329Z,99996.06
2022-08-16T23:24:06.800Z,99990.97
2022-08-16T23:26:45.693Z,99992.06
2022-08-16T23:29:23.643Z,99975.47
2022-08-16T23:31:58.094Z,99976.69
2022-08-16T23:34:29.542Z,99970.63
2022-08-16T23:36:58.352Z,99965.56
2022-08-16T23:39:26.999Z,99966.66
2022-08-16T23:41:55.639Z,99969.44
2022-08-16T23:44:56.410Z,99976.03
2022-08-16T23:47:12.573Z,99971.94
2022-08-16T23:50:01.597Z,99965.16
2022-08-16T23:52:39.343Z,99961.91
2022-08-16T23:55:19.561Z,99966.66
2022-08-16T23:57:48.266Z,99961.44
